• Join FlightAware (Why Join?)
  • Login
  • US Flag 
09:51AM EDT


 

Airport Tracker/Info


-or-


 

Live Flight TrackerFlight Track Log ✈ SWA554 ✈ 11-Apr-2013 ✈ KPHX - KMKE

Flight Track Log - Related Links

Times and Time Zones

All times are in EDT time to prevent confusion due to time zone crossing. See the SWA554 flight status page for this flight to view local times or setup timezone preferences in your user account.

Time Position Orientation Groundspeed Altitude Reporting Facility
EDT Latitude Longitude Course Direction KTS MPH feet Rate Location/Type
11:02AM 33.4333 -111.9833 90° East 161 185 1,800  Level Phoenix TRACON
11:03AM 33.4333 -111.9500 90° East 173 199 3,100 1,380 Climbing Phoenix TRACON
11:04AM 33.4361 -111.9186 84° East 203 234 3,700 2,520 Climbing Albuquerque Center
11:05AM 33.4594 -111.8219 74° East 271 312 7,100 3,300 Climbing Albuquerque Center
11:06AM 33.4981 -111.7469 58° Northeast 277 319 10,500 2,700 Climbing Albuquerque Center
11:07AM 33.5436 -111.6556 59° Northeast 322 371 12,700 2,400 Climbing Albuquerque Center
11:08AM 33.5844 -111.5486 65° Northeast 354 407 15,500 2,640 Climbing Albuquerque Center
11:09AM 33.6269 -111.4344 66° East 376 433 18,200 2,580 Climbing Albuquerque Center
11:10AM 33.6808 -111.2881 66° East 403 464 20,900 2,400 Climbing Albuquerque Center
11:11AM 33.7269 -111.1597 67° East 420 483 23,200 1,980 Climbing Albuquerque Center
11:12AM 33.7739 -111.0256 67° East 436 502 25,100 1,800 Climbing Albuquerque Center
11:13AM 33.8236 -110.8850 67° East 452 520 27,000 1,680 Climbing Albuquerque Center
11:14AM 33.8733 -110.7428 67° East 461 531 28,600 1,500 Climbing Albuquerque Center
11:15AM 33.9261 -110.5944 67° East 474 545 30,100 1,320 Climbing Albuquerque Center
11:16AM 33.9883 -110.4136 67° East 487 560 31,400 1,500 Climbing Albuquerque Center
11:17AM 34.0383 -110.2739 67° East 494 568 33,200 1,560 Climbing Albuquerque Center
11:18AM 34.0911 -110.1236 67° East 491 565 34,700 1,320 Climbing Albuquerque Center
11:19AM 34.1508 -109.9511 67° East 485 558 36,000 1,080 Climbing Albuquerque Center
11:20AM 34.2008 -109.8044 68° East 490 564 37,000 480 Climbing Albuquerque Center
11:21AM 34.2586 -109.6325 68° East 493 567 37,000  Level Albuquerque Center
11:22AM 34.3097 -109.4861 67° East 495 570 37,000  Level Albuquerque Center
11:23AM 34.3669 -109.3161 68° East 492 566 37,000  Level Albuquerque Center
11:24AM 34.4164 -109.1683 68° East 492 566 37,000  Level Albuquerque Center
11:25AM 34.4731 -108.9989 68° East 490 564 37,000  Level Albuquerque Center
11:27AM 34.5478 -108.8717 54° Northeast 489 563 37,000  Level Albuquerque Center
11:28AM 34.6314 -108.7203 56° Northeast 484 557 37,000  Level Albuquerque Center
11:29AM 34.7033 -108.5919 56° Northeast 482 555 37,000  Level Albuquerque Center
11:30AM 34.7769 -108.4614 56° Northeast 485 558 37,000  Level Albuquerque Center
11:31AM 34.8603 -108.3114 56° Northeast 484 557 37,000  Level Albuquerque Center
11:32AM 34.9450 -108.1597 56° Northeast 486 559 37,000  Level Albuquerque Center
11:33AM 35.0164 -108.0292 56° Northeast 485 558 37,000  Level Albuquerque Center
11:34AM 35.1003 -107.8781 56° Northeast 483 556 37,000  Level Albuquerque Center
11:35AM 35.1717 -107.7469 56° Northeast 485 558 37,000  Level Albuquerque Center
11:36AM 35.2556 -107.5936 56° Northeast 486 559 37,000  Level Albuquerque Center
11:37AM 35.3192 -107.4769 56° Northeast 484 557 37,000  Level Albuquerque Center
11:38AM 35.4094 -107.3100 56° Northeast 484 557 37,000  Level Albuquerque Center
11:39AM 35.4850 -107.1706 56° Northeast 487 560 37,000  Level Albuquerque Center
11:40AM 35.5589 -107.0322 57° Northeast 483 556 37,000  Level Albuquerque Center
11:41AM 35.6331 -106.8953 56° Northeast 480 552 37,000  Level Albuquerque Center
11:42AM 35.7033 -106.7625 57° Northeast 481 554 37,000  Level Albuquerque Center
11:43AM 35.7861 -106.6075 57° Northeast 483 556 37,000  Level Albuquerque Center
11:44AM 35.8572 -106.4756 56° Northeast 483 556 37,000  Level Albuquerque Center
11:45AM 35.9292 -106.3383 57° Northeast 486 559 37,000  Level Albuquerque Center
11:46AM 36.0156 -106.1711 57° Northeast 482 555 37,000  Level Albuquerque Center
11:47AM 36.0883 -106.0297 57° Northeast 486 559 37,000  Level Albuquerque Center
11:48AM 36.1597 -105.8911 57° Northeast 481 554 37,000  Level Albuquerque Center
11:49AM 36.2311 -105.7517 58° Northeast 480 552 37,000  Level Albuquerque Center
11:50AM 36.3022 -105.6122 58° Northeast 479 551 37,000  Level Albuquerque Center
11:51AM 36.3825 -105.4575 57° Northeast 478 550 37,000  Level Albuquerque Center
11:52AM 36.4597 -105.3064 58° Northeast 477 549 37,000  Level Albuquerque Center
11:53AM 36.5264 -105.1725 58° Northeast 483 556 37,000  Level Albuquerque Center
11:54AM 36.5975 -105.0311 58° Northeast 480 552 37,000  Level Albuquerque Center
11:55AM 36.6697 -104.8889 58° Northeast 479 551 37,000  Level Albuquerque Center
11:56AM 36.7544 -104.7203 58° Northeast 482 555 37,000  Level Albuquerque Center
11:58AM 36.8214 -104.5861 58° Northeast 480 552 37,000  Level Albuquerque Center
11:59AM 36.8886 -104.4514 58° Northeast 478 550 37,000  Level Albuquerque Center
12:00PM 36.9672 -104.2939 58° Northeast 478 550 37,000  Level Albuquerque Center
12:01PM 37.0328 -104.1608 58° Northeast 474 545 37,000  Level Albuquerque Center
12:02PM 37.1092 -104.0061 58° Northeast 471 542 37,000  Level Albuquerque Center
12:02PM 37.1428 -103.9389 58° Northeast 473 544 37,000  Level Denver Center
12:03PM 37.2178 -103.7839 59° Northeast 470 541 37,000  Level Denver Center
12:04PM 37.2831 -103.6508 58° Northeast 471 542 37,000  Level Denver Center
12:05PM 37.3258 -103.5633 58° Northeast 469 540 37,000  Level Albuquerque Center
12:06PM 37.3911 -103.4286 59° Northeast 472 543 37,000  Level Albuquerque Center
12:06PM 37.4239 -103.3594 59° Northeast 473 544 37,000  Level Denver Center
12:07PM 37.4994 -103.2017 59° Northeast 473 544 37,000  Level Denver Center
12:08PM 37.5642 -103.0656 59° Northeast 475 547 37,000  Level Denver Center
12:09PM 37.6411 -102.9061 59° Northeast 476 548 37,000  Level Denver Center
12:10PM 37.7050 -102.7703 59° Northeast 472 543 37,000  Level Denver Center
12:11PM 37.7792 -102.6100 60° Northeast 474 545 37,000  Level Denver Center
12:13PM 37.8444 -102.4722 59° Northeast 476 548 37,000  Level Denver Center
12:14PM 37.9214 -102.3061 60° Northeast 489 563 37,000  Level Denver Center
12:15PM 37.9883 -102.1642 59° Northeast 491 565 37,000  Level Denver Center
12:16PM 38.0550 -102.0197 60° Northeast 496 571 37,000  Level Denver Center
12:17PM 38.1325 -101.8522 59° Northeast 494 568 37,000  Level Denver Center
12:18PM 38.1986 -101.7081 60° Northeast 494 568 37,000  Level Denver Center
12:19PM 38.2753 -101.5378 60° Northeast 497 572 37,000  Level Denver Center
12:20PM 38.3417 -101.3903 60° Northeast 500 575 37,000  Level Denver Center
12:21PM 38.4194 -101.2186 60° Northeast 501 577 37,000  Level Denver Center
12:22PM 38.4856 -101.0722 60° Northeast 498 573 37,000  Level Denver Center
12:23PM 38.5586 -100.9086 60° Northeast 489 563 37,000  Level Denver Center
12:24PM 38.6222 -100.7647 60° Northeast 486 559 37,000  Level Denver Center
12:25PM 38.6958 -100.5992 60° Northeast 480 552 37,000  Level Denver Center
12:26PM 38.7572 -100.4594 61° Northeast 472 543 37,000  Level Denver Center
12:27PM 38.8303 -100.2956 60° Northeast 474 545 37,000  Level Denver Center
12:28PM 38.8911 -100.1528 61° Northeast 477 549 37,000  Level Denver Center
12:29PM 38.9647 -99.9819 61° Northeast 473 544 37,000  Level Denver Center
12:30PM 39.0297 -99.8317 61° Northeast 478 550 37,000  Level Denver Center
12:31PM 39.0931 -99.6839 61° Northeast 474 545 37,000  Level Denver Center
12:32PM 39.1561 -99.5364 61° Northeast 471 542 37,000  Level Denver Center
12:33PM 39.2247 -99.3775 61° Northeast 466 536 37,000  Level Denver Center
12:34PM 39.2833 -99.2381 61° Northeast 464 534 37,000  Level Denver Center
12:35PM 39.3522 -99.0750 61° Northeast 464 534 37,000  Level Denver Center
12:36PM 39.4164 -98.9208 62° Northeast 468 539 37,000  Level Denver Center
12:37PM 39.4772 -98.7744 62° Northeast 465 535 37,000  Level Denver Center
12:38PM 39.5394 -98.6253 62° Northeast 469 540 37,000  Level Denver Center
12:39PM 39.5886 -98.5061 62° Northeast 470 541 37,000  Level Denver Center
12:40PM 39.6375 -98.3894 61° Northeast 467 537 37,000  Level Minneapolis Center
12:41PM 39.6994 -98.2381 62° Northeast 472 543 37,000  Level Minneapolis Center
12:42PM 39.7611 -98.0869 62° Northeast 474 545 37,000  Level Minneapolis Center
12:43PM 39.8222 -97.9353 62° Northeast 475 547 37,000  Level Minneapolis Center
12:44PM 39.8836 -97.7817 62° Northeast 478 550 37,000  Level Minneapolis Center
12:45PM 39.9458 -97.6283 62° Northeast 479 551 37,000  Level Minneapolis Center
12:46PM 40.0061 -97.4750 63° Northeast 477 549 37,000  Level Minneapolis Center
12:47PM 40.0786 -97.2975 62° Northeast 473 544 37,000  Level Minneapolis Center
12:48PM 40.1383 -97.1436 63° Northeast 473 544 37,000  Level Minneapolis Center
12:49PM 40.1983 -96.9900 63° Northeast 475 547 37,000  Level Minneapolis Center
12:50PM 40.2583 -96.8375 63° Northeast 473 544 37,000  Level Minneapolis Center
12:51PM 40.3186 -96.6842 63° Northeast 474 545 37,000  Level Minneapolis Center
12:52PM 40.3792 -96.5286 63° Northeast 477 549 37,000  Level Minneapolis Center
12:53PM 40.4381 -96.3703 64° Northeast 483 556 37,000  Level Minneapolis Center
12:54PM 40.5114 -96.1833 63° Northeast 482 555 37,000  Level Minneapolis Center
12:55PM 40.5711 -96.0236 64° Northeast 487 560 37,000  Level Minneapolis Center
12:56PM 40.6308 -95.8675 63° Northeast 483 556 37,000  Level Minneapolis Center
12:57PM 40.6894 -95.7100 64° Northeast 483 556 37,000  Level Minneapolis Center
12:58PM 40.7486 -95.5539 63° Northeast 480 552 37,000  Level Minneapolis Center
12:59PM 40.8067 -95.3967 64° Northeast 481 554 37,000  Level Minneapolis Center
01:00PM 40.8661 -95.2394 63° Northeast 481 554 37,000  Level Minneapolis Center
01:01PM 40.9344 -95.0517 64° Northeast 478 550 37,000  Level Minneapolis Center
01:02PM 40.9917 -94.8958 64° Northeast 476 548 37,000  Level Minneapolis Center
01:04PM 41.0497 -94.7389 64° Northeast 475 547 37,000  Level Minneapolis Center
01:05PM 41.1075 -94.5806 64° Northeast 477 549 37,000  Level Minneapolis Center
01:06PM 41.1619 -94.4228 65° Northeast 476 548 37,000  Level Minneapolis Center
01:07PM 41.2189 -94.2656 64° Northeast 475 547 37,000  Level Minneapolis Center
01:08PM 41.2725 -94.1103 65° Northeast 474 545 37,000  Level Minneapolis Center
01:09PM 41.3411 -93.9192 64° Northeast 476 548 37,000  Level Minneapolis Center
01:10PM 41.3969 -93.7594 65° Northeast 477 549 37,000  Level Minneapolis Center
01:11PM 41.4469 -93.5956 68° East 479 551 37,000  Level Minneapolis Center
01:12PM 41.4925 -93.4253 70° East 486 559 37,000  Level Minneapolis Center
01:13PM 41.5367 -93.2583 70° East 483 556 37,000  Level Minneapolis Center
01:14PM 41.5828 -93.0897 70° East 483 556 37,000  Level Minneapolis Center
01:15PM 41.6281 -92.9211 70° East 484 557 37,000  Level Minneapolis Center
01:16PM 41.6825 -92.7164 70° East 487 560 37,000  Level Minneapolis Center
01:17PM 41.7200 -92.5678 71° East 487 560 37,000  Level Chicago Center
01:18PM 41.7650 -92.3964 71° East 491 565 37,000  Level Chicago Center
01:19PM 41.8081 -92.2261 71° East 489 563 37,000  Level Chicago Center
01:20PM 41.8614 -92.0214 71° East 489 563 37,000  Level Chicago Center
01:21PM 41.9042 -91.8503 71° East 490 564 37,000  Level Chicago Center
01:22PM 41.9475 -91.6794 71° East 490 564 37,000  Level Chicago Center
01:23PM 41.9906 -91.5067 71° East 493 567 37,000 -60 Level Chicago Center
01:24PM 42.0331 -91.3339 72° East 494 568 36,900 -660 Descending Chicago Center
01:25PM 42.0872 -91.1206 71° East 505 581 35,700 -1,020 Descending Chicago Center
01:26PM 42.1158 -90.9453 78° East 481 554 34,800 -900 Descending Chicago Center
01:27PM 42.1447 -90.7644 78° East 494 568 33,900 -1,140 Descending Chicago Center
01:28PM 42.1758 -90.5800 77° East 507 583 32,500 -1,740 Descending Chicago Center
01:29PM 42.2039 -90.4033 78° East 494 568 30,400 -2,280 Descending Chicago Center
01:30PM 42.2619 -90.1928 70° East 503 579 27,900 -2,220 Descending Chicago Center
01:31PM 42.3103 -90.0217 69° East 495 570 25,900 -1,440 Descending Chicago Center
01:32PM 42.3603 -89.8389 70° East 477 549 25,000 -780 Descending Chicago Center
01:33PM 42.4036 -89.6772 70° East 459 528 24,300 -960 Descending Chicago Center
01:34PM 42.4442 -89.5242 70° East 438 504 23,100 -1,200 Descending Chicago Center
01:35PM 42.4869 -89.3672 70° East 442 509 21,900 -1,380 Descending Chicago Center
01:36PM 42.5269 -89.2203 70° East 421 484 20,300 -2,040 Descending Chicago Center
01:37PM 42.5675 -89.0475 72° East 413 475 17,700 -2,100 Descending Chicago Center
01:38PM 42.5942 -88.9089 75° East 385 443 16,000 -1,800 Descending Chicago Center
01:40PM 42.6197 -88.7717 76° East 377 434 14,000 -1,980 Descending Chicago Center
01:41PM 42.6436 -88.6383 76° East 367 422 12,000 -1,800 Descending Chicago Center
01:42PM 42.6883 -88.5219 62° Northeast 375 432 10,400 -1,500 Descending Chicago Center
01:44PM 42.8100 -88.3111 52° Northeast 318 366 7,400 -1,560 Descending Chicago Center
01:45PM 42.8558 -88.2206 55° Northeast 297 342 5,600 -1,380 Descending Chicago Center
01:46PM 42.8833 -88.1167 70° East 237 273 4,600 -900 Descending KMKE
01:47PM 42.9000 -88.0500 71° East 173 199 3,800 -1,200 Descending KMKE
01:48PM 42.9167 -88.0000 66° East 119 137 2,200 -1,200 Descending KMKE
01:49PM 42.9333 -87.9500 66° East 126 145 1,400 -840 Descending KMKE
01:51PM 42.9469 -87.8971 56° Northeast  Level Estimated
01:58PM 42.9469 -87.8971 56° Northeast  Level Estimated